createdAt,value
2018-01-10T00:01:12.076Z,100640.66
2018-01-10T00:03:40.815Z,100609.61
2018-01-10T00:06:09.210Z,100608.91
2018-01-10T00:08:37.553Z,100647.09
2018-01-10T00:11:05.909Z,100674.73
2018-01-10T00:13:34.758Z,100668.17
2018-01-10T00:16:03.120Z,100686.50
2018-01-10T00:18:31.477Z,100684.61
2018-01-10T00:20:59.829Z,100688.61
2018-01-10T00:23:28.673Z,100684.98
2018-01-10T00:25:57.075Z,100678.53
2018-01-10T00:28:25.440Z,100661.94
2018-01-10T00:30:53.808Z,100661.25
2018-01-10T00:33:22.196Z,100666.02
2018-01-10T00:35:50.555Z,100667.52
2018-01-10T00:38:18.912Z,100661.55
2018-01-10T00:40:47.288Z,100641.03
2018-01-10T00:43:15.704Z,100636.79
2018-01-10T00:45:44.060Z,100649.20
2018-01-10T00:48:12.413Z,100649.83
2018-01-10T00:50:41.248Z,100659.94
2018-01-10T00:53:09.679Z,100662.41
2018-01-10T00:55:38.519Z,100655.55
2018-01-10T00:58:06.858Z,100654.25
2018-01-10T01:00:35.383Z,100654.90
2018-01-10T01:03:03.728Z,100664.02
2018-01-10T01:05:32.095Z,100668.18
2018-01-10T01:08:00.452Z,100668.91
2018-01-10T01:10:29.308Z,100681.79
2018-01-10T01:12:57.651Z,100674.72
2018-01-10T01:15:26.000Z,100670.45
2018-01-10T01:17:54.748Z,100660.30
2018-01-10T01:20:23.227Z,100656.92
2018-01-10T01:22:51.599Z,100652.81
2018-01-10T01:25:19.980Z,100643.13
2018-01-10T01:27:49.028Z,100630.88
2018-01-10T01:30:17.884Z,100616.81
2018-01-10T01:32:46.252Z,100615.11
2018-01-10T01:35:14.733Z,100619.98
2018-01-10T01:37:43.108Z,100635.72
2018-01-10T01:40:11.459Z,100651.95
2018-01-10T01:42:39.976Z,100644.23
2018-01-10T01:45:08.360Z,100640.77
2018-01-10T01:47:36.733Z,100639.64
2018-01-10T01:50:05.099Z,100641.19
2018-01-10T01:52:33.443Z,100645.67
2018-01-10T01:55:01.820Z,100648.48
2018-01-10T01:57:30.172Z,100643.41
2018-01-10T01:59:58.526Z,100648.09
2018-01-10T02:02:26.892Z,100652.66
2018-01-10T02:04:55.275Z,100644.06
2018-01-10T02:07:23.629Z,100655.08
2018-01-10T02:09:52.000Z,100650.38
2018-01-10T02:12:20.351Z,100646.52
2018-01-10T02:14:49.093Z,100638.58
2018-01-10T02:17:17.469Z,100635.62
2018-01-10T02:19:45.856Z,100628.60
2018-01-10T02:22:14.205Z,100628.11
2018-01-10T02:24:42.716Z,100631.43
2018-01-10T02:27:11.080Z,100622.84
2018-01-10T02:29:39.470Z,100616.69
2018-01-10T02:32:07.826Z,100616.52
2018-01-10T02:34:36.167Z,100618.86
2018-01-10T02:37:04.934Z,100622.98
2018-01-10T02:39:33.271Z,100620.78
2018-01-10T02:42:01.651Z,100619.06
2018-01-10T02:44:30.016Z,100622.05
2018-01-10T02:46:58.382Z,100613.89
2018-01-10T02:49:27.259Z,100622.69
2018-01-10T02:51:55.708Z,100620.06
2018-01-10T02:54:24.076Z,100622.78
2018-01-10T02:56:52.471Z,100621.94
2018-01-10T02:59:20.836Z,100622.94
2018-01-10T03:01:49.204Z,100634.19
2018-01-10T03:04:17.552Z,100629.94
2018-01-10T03:06:46.384Z,100633.12
2018-01-10T03:09:14.738Z,100635.80
2018-01-10T03:11:43.144Z,100640.87
2018-01-10T03:14:11.526Z,100634.67
2018-01-10T03:16:39.903Z,100639.18
2018-01-10T03:19:08.286Z,100644.41
2018-01-10T03:21:36.677Z,100653.08
2018-01-10T03:24:05.041Z,100652.77
2018-01-10T03:26:33.412Z,100657.50
2018-01-10T03:29:01.800Z,100655.07
2018-01-10T03:31:30.249Z,100648.86
2018-01-10T03:33:58.592Z,100656.86
2018-01-10T03:36:27.351Z,100655.71
2018-01-10T03:38:55.789Z,100649.39
2018-01-10T03:41:24.160Z,100661.61
2018-01-10T03:43:52.524Z,100659.83
2018-01-10T03:46:21.274Z,100666.48
2018-01-10T03:48:49.981Z,100657.58
2018-01-10T03:51:18.349Z,100657.13
2018-01-10T03:53:46.820Z,100649.88
2018-01-10T03:56:15.198Z,100646.52
2018-01-10T03:58:43.556Z,100636.87
2018-01-10T04:01:11.908Z,100642.47
2018-01-10T04:03:40.272Z,100641.86
2018-01-10T04:06:09.103Z,100627.63
2018-01-10T04:08:37.476Z,100629.90
2018-01-10T04:11:05.819Z,100631.33
2018-01-10T04:13:34.656Z,100629.22
2018-01-10T04:16:03.140Z,100616.66
2018-01-10T04:18:31.530Z,100629.25
2018-01-10T04:21:00.012Z,100625.47
2018-01-10T04:23:28.362Z,100636.08
2018-01-10T04:25:56.725Z,100631.89
2018-01-10T04:28:25.092Z,100635.56
2018-01-10T04:30:53.866Z,100643.04
2018-01-10T04:33:22.712Z,100647.27
2018-01-10T04:35:51.087Z,100639.47
2018-01-10T04:38:19.467Z,100631.78
2018-01-10T04:40:47.853Z,100629.03
2018-01-10T04:43:16.251Z,100634.09
2018-01-10T04:45:44.717Z,100643.05
2018-01-10T04:48:13.103Z,100644.26
2018-01-10T04:50:41.464Z,100652.47
2018-01-10T04:53:09.907Z,100649.58
2018-01-10T04:55:38.267Z,100645.59
2018-01-10T04:58:07.040Z,100639.14
2018-01-10T05:00:35.400Z,100649.06
2018-01-10T05:03:03.744Z,100639.31
2018-01-10T05:05:32.112Z,100635.67
2018-01-10T05:08:00.467Z,100641.36
2018-01-10T05:10:29.321Z,100647.27
2018-01-10T05:12:57.688Z,100655.34
2018-01-10T05:15:26.049Z,100651.69
2018-01-10T05:17:54.462Z,100642.55
2018-01-10T05:20:22.846Z,100637.34
2018-01-10T05:22:51.212Z,100628.86
2018-01-10T05:25:19.572Z,100627.24
2018-01-10T05:27:47.929Z,100631.36
2018-01-10T05:30:16.287Z,100624.23
2018-01-10T05:32:45.140Z,100621.08
2018-01-10T05:35:13.503Z,100625.96
2018-01-10T05:37:41.871Z,100626.90
2018-01-10T05:40:10.228Z,100626.03
2018-01-10T05:42:38.623Z,100621.66
2018-01-10T05:45:06.988Z,100623.42
2018-01-10T05:47:35.483Z,100615.02
2018-01-10T05:50:03.840Z,100610.75
2018-01-10T05:52:32.610Z,100618.09
2018-01-10T05:55:00.982Z,100630.25
2018-01-10T05:57:29.439Z,100631.17
2018-01-10T05:59:57.818Z,100635.59
2018-01-10T06:02:26.184Z,100628.13
2018-01-10T06:04:54.544Z,100619.99
2018-01-10T06:07:22.917Z,100614.70
2018-01-10T06:09:51.327Z,100618.64
2018-01-10T06:12:19.705Z,100618.89
2018-01-10T06:14:48.087Z,100623.64
2018-01-10T06:17:16.447Z,100630.49
2018-01-10T06:19:44.845Z,100630.86
2018-01-10T06:22:13.207Z,100645.06
2018-01-10T06:24:41.602Z,100649.77
2018-01-10T06:27:09.965Z,100646.48
2018-01-10T06:29:38.328Z,100638.26
2018-01-10T06:32:06.742Z,100649.63
2018-01-10T06:34:35.100Z,100642.88
2018-01-10T06:37:03.504Z,100654.88
2018-01-10T06:39:31.879Z,100671.88
2018-01-10T06:42:00.237Z,100680.50
2018-01-10T06:44:28.644Z,100661.73
2018-01-10T06:46:57.108Z,100655.08
2018-01-10T06:49:25.476Z,100664.69
2018-01-10T06:51:53.967Z,100673.70
2018-01-10T06:54:22.354Z,100680.83
2018-01-10T06:56:50.927Z,100679.91
2018-01-10T06:59:19.288Z,100672.19
2018-01-10T07:01:47.666Z,100671.34
2018-01-10T07:04:16.039Z,100671.80
2018-01-10T07:06:44.464Z,100663.87
2018-01-10T07:09:12.914Z,100663.80
2018-01-10T07:11:41.350Z,100667.31
2018-01-10T07:14:10.116Z,100664.14
2018-01-10T07:16:38.639Z,100660.56
2018-01-10T07:19:07.671Z,100653.02
2018-01-10T07:21:36.045Z,100643.27
2018-01-10T07:24:04.414Z,100648.16
2018-01-10T07:26:32.810Z,100643.63
2018-01-10T07:29:01.186Z,100642.09
2018-01-10T07:31:29.643Z,100639.17
2018-01-10T07:33:58.032Z,100649.78
2018-01-10T07:36:26.432Z,100650.61
2018-01-10T07:38:54.885Z,100655.72
2018-01-10T07:41:23.253Z,100659.05
2018-01-10T07:43:51.684Z,100658.88
2018-01-10T07:46:20.152Z,100657.95
2018-01-10T07:51:16.168Z,100659.09
2018-01-10T07:53:44.544Z,100655.20
2018-01-10T07:56:12.943Z,100652.16
2018-01-10T07:58:41.303Z,100663.81
2018-01-10T08:01:09.699Z,100671.08
2018-01-10T08:03:38.087Z,100685.25
2018-01-10T08:06:06.498Z,100685.97
2018-01-10T08:08:35.353Z,100682.72
2018-01-10T08:11:03.756Z,100680.22
2018-01-10T08:13:32.107Z,100678.99
2018-01-10T08:16:00.484Z,100677.88
2018-01-10T08:18:28.863Z,100675.15
2018-01-10T08:20:57.241Z,100680.00
2018-01-10T08:23:25.603Z,100691.31
2018-01-10T08:25:54.012Z,100682.21
2018-01-10T08:28:22.470Z,100678.52
2018-01-10T08:30:50.841Z,100682.62
2018-01-10T08:33:19.232Z,100680.94
2018-01-10T08:35:48.124Z,100673.39
2018-01-10T08:38:16.504Z,100673.34
2018-01-10T08:40:45.192Z,100670.23
2018-01-10T08:43:13.707Z,100681.20
2018-01-10T08:45:42.103Z,100687.59
2018-01-10T08:48:10.932Z,100690.81
2018-01-10T08:50:39.277Z,100691.95
2018-01-10T08:53:08.068Z,100706.28
2018-01-10T08:55:36.904Z,100708.23
2018-01-10T08:58:05.272Z,100706.70
2018-01-10T09:00:33.656Z,100705.97
2018-01-10T09:03:02.067Z,100706.97
2018-01-10T09:05:30.474Z,100697.25
2018-01-10T09:07:59.235Z,100697.48
2018-01-10T09:10:27.608Z,100686.97
2018-01-10T09:12:56.041Z,100689.92
2018-01-10T09:15:24.443Z,100693.84
2018-01-10T09:17:52.823Z,100694.47
2018-01-10T09:20:21.172Z,100692.66
2018-01-10T09:22:49.553Z,100680.53
2018-01-10T09:25:17.971Z,100685.16
2018-01-10T09:27:46.952Z,100683.39
2018-01-10T09:30:15.378Z,100698.86
2018-01-10T09:32:44.208Z,100703.10
2018-01-10T09:35:12.592Z,100705.93
2018-01-10T09:37:40.974Z,100700.44
2018-01-10T09:40:09.330Z,100705.22
2018-01-10T09:42:37.711Z,100703.45
2018-01-10T09:45:06.090Z,100706.88
2018-01-10T09:47:34.473Z,100710.69
2018-01-10T09:50:02.820Z,100695.70
2018-01-10T09:52:31.574Z,100696.36
2018-01-10T09:54:59.945Z,100689.23
2018-01-10T09:57:28.328Z,100689.11
2018-01-10T09:59:56.800Z,100690.14
2018-01-10T10:02:25.196Z,100684.53
2018-01-10T10:04:53.557Z,100684.70
2018-01-10T10:07:21.919Z,100691.50
2018-01-10T10:09:50.280Z,100680.44
2018-01-10T10:12:18.762Z,100685.50
2018-01-10T10:14:47.104Z,100682.15
2018-01-10T10:17:15.659Z,100675.39
2018-01-10T10:19:44.145Z,100672.86
2018-01-10T10:22:12.572Z,100676.23
2018-01-10T10:24:41.352Z,100670.11
2018-01-10T10:27:09.705Z,100666.39
2018-01-10T10:29:38.092Z,100664.30
2018-01-10T10:32:06.461Z,100646.97
2018-01-10T10:34:34.822Z,100648.45
2018-01-10T10:37:03.197Z,100633.95
2018-01-10T10:39:31.637Z,100611.73
2018-01-10T10:42:00.049Z,100612.75
2018-01-10T10:44:28.502Z,100611.45
2018-01-10T10:46:56.860Z,100601.92
2018-01-10T10:49:25.656Z,100599.75
2018-01-10T10:51:54.091Z,100600.19
2018-01-10T10:54:22.467Z,100592.77
2018-01-10T10:56:50.819Z,100594.07
2018-01-10T10:59:19.209Z,100596.28
2018-01-10T11:01:47.581Z,100602.38
2018-01-10T11:04:15.940Z,100597.17
2018-01-10T11:06:44.303Z,100605.48
2018-01-10T11:09:13.169Z,100608.05
2018-01-10T11:11:41.951Z,100608.83
2018-01-10T11:14:10.316Z,100613.05
2018-01-10T11:16:38.757Z,100622.17
2018-01-10T11:19:07.383Z,100620.73
2018-01-10T11:21:35.750Z,100608.61
2018-01-10T11:24:04.115Z,100602.09
2018-01-10T11:26:32.470Z,100595.12
2018-01-10T11:29:00.822Z,100600.68
2018-01-10T11:31:29.183Z,100598.22
2018-01-10T11:33:57.591Z,100604.09
2018-01-10T11:36:26.355Z,100597.43
2018-01-10T11:38:54.712Z,100600.11
2018-01-10T11:41:23.093Z,100600.97
2018-01-10T11:43:51.542Z,100598.31
2018-01-10T11:46:20.031Z,100595.33
2018-01-10T11:48:48.433Z,100589.66
2018-01-10T11:51:16.818Z,100584.45
2018-01-10T11:53:45.208Z,100587.95
2018-01-10T11:56:13.577Z,100585.77
2018-01-10T11:58:41.990Z,100591.00
2018-01-10T12:01:10.765Z,100591.90
2018-01-10T12:03:39.120Z,100597.13
2018-01-10T12:06:07.489Z,100587.53
2018-01-10T12:08:35.867Z,100591.02
2018-01-10T12:11:04.352Z,100597.13
2018-01-10T12:13:32.737Z,100594.53
2018-01-10T12:16:01.375Z,100593.63
2018-01-10T12:18:29.883Z,100605.89
2018-01-10T12:20:58.286Z,100598.88
2018-01-10T12:23:26.740Z,100609.78
2018-01-10T12:25:55.118Z,100603.30
2018-01-10T12:28:23.530Z,100594.97
2018-01-10T12:30:51.905Z,100603.25
2018-01-10T12:33:20.293Z,100590.54
2018-01-10T12:35:48.660Z,100592.73
2018-01-10T12:38:17.133Z,100607.62
2018-01-10T12:40:45.485Z,100606.75
2018-01-10T12:43:13.843Z,100603.27
2018-01-10T12:45:42.274Z,100606.30
2018-01-10T12:48:12.235Z,100598.36
2018-01-10T12:50:40.720Z,100598.88
2018-01-10T12:53:09.552Z,100604.05
2018-01-10T12:55:37.910Z,100613.53
2018-01-10T12:58:06.295Z,100606.21
2018-01-10T13:00:34.710Z,100610.52
2018-01-10T13:03:03.088Z,100608.65
2018-01-10T13:05:31.438Z,100611.12
2018-01-10T13:07:59.855Z,100604.33
2018-01-10T13:10:28.283Z,100604.05
2018-01-10T13:12:56.693Z,100616.95
2018-01-10T13:15:25.086Z,100626.03
2018-01-10T13:17:53.650Z,100618.06
2018-01-10T13:20:22.036Z,100610.42
2018-01-10T13:22:51.531Z,100608.22
2018-01-10T13:25:20.635Z,100609.16
2018-01-10T13:27:49.019Z,100611.05
2018-01-10T13:30:17.391Z,100604.54
2018-01-10T13:32:45.763Z,100604.26
2018-01-10T13:35:14.129Z,100595.39
2018-01-10T13:37:42.485Z,100596.75
2018-01-10T13:40:10.851Z,100588.43
2018-01-10T13:42:39.615Z,100587.88
2018-01-10T13:45:07.979Z,100581.67
2018-01-10T13:47:36.372Z,100585.61
2018-01-10T13:50:04.807Z,100591.12
2018-01-10T13:52:33.197Z,100593.03
2018-01-10T13:55:01.567Z,100601.11
2018-01-10T13:57:29.955Z,100597.16
2018-01-10T13:59:58.372Z,100600.38
2018-01-10T14:02:26.740Z,100607.13
2018-01-10T14:04:55.118Z,100603.85
2018-01-10T14:07:23.558Z,100600.88
2018-01-10T14:09:51.976Z,100616.12
2018-01-10T14:12:20.340Z,100608.33
2018-01-10T14:14:48.747Z,100613.37
2018-01-10T14:17:17.127Z,100616.95
2018-01-10T14:19:45.505Z,100612.27
2018-01-10T14:22:13.872Z,100617.03
2018-01-10T14:24:42.474Z,100613.13
2018-01-10T14:27:11.228Z,100616.41
2018-01-10T14:29:39.624Z,100622.91
2018-01-10T14:32:07.992Z,100624.67
2018-01-10T14:34:36.344Z,100623.58
2018-01-10T14:37:04.720Z,100620.37
2018-01-10T14:39:33.122Z,100625.11
2018-01-10T14:42:01.492Z,100625.58
2018-01-10T14:44:29.901Z,100629.09
2018-01-10T14:46:58.280Z,100631.38
2018-01-10T14:49:26.740Z,100626.49
2018-01-10T14:51:55.106Z,100626.02
2018-01-10T14:54:23.479Z,100618.30
2018-01-10T14:56:51.836Z,100614.55
2018-01-10T14:59:20.191Z,100620.28
2018-01-10T15:01:48.712Z,100615.48
2018-01-10T15:04:17.063Z,100619.83
2018-01-10T15:06:45.849Z,100617.55
2018-01-10T15:09:14.703Z,100624.11
2018-01-10T15:11:43.074Z,100614.54
2018-01-10T15:14:11.453Z,100615.88
2018-01-10T15:16:39.816Z,100618.11
2018-01-10T15:19:08.193Z,100620.97
2018-01-10T15:21:36.559Z,100627.17
2018-01-10T15:24:04.903Z,100632.34
2018-01-10T15:26:33.784Z,100628.82
2018-01-10T15:29:02.233Z,100636.69
2018-01-10T15:31:30.859Z,100629.83
2018-01-10T15:33:59.621Z,100626.03
2018-01-10T15:36:28.000Z,100633.27
2018-01-10T15:38:56.472Z,100637.97
2018-01-10T15:41:24.835Z,100636.66
2018-01-10T15:43:53.284Z,100636.84
2018-01-10T15:46:21.677Z,100632.91
2018-01-10T15:48:50.088Z,100629.40
2018-01-10T15:51:18.448Z,100632.69
2018-01-10T15:53:46.808Z,100630.02
2018-01-10T15:56:15.232Z,100634.06
2018-01-10T15:58:43.709Z,100634.80
2018-01-10T16:01:12.060Z,100628.46
2018-01-10T16:03:40.435Z,100633.30
2018-01-10T16:06:08.838Z,100632.84
2018-01-10T16:08:37.205Z,100632.44
2018-01-10T16:11:05.594Z,100638.64
2018-01-10T16:13:33.980Z,100638.68
2018-01-10T16:16:02.360Z,100633.77
2018-01-10T16:18:30.707Z,100641.19
2018-01-10T16:20:59.099Z,100631.77
2018-01-10T16:23:27.482Z,100624.97
2018-01-10T16:25:55.860Z,100624.28
2018-01-10T16:28:24.249Z,100618.34
2018-01-10T16:30:52.607Z,100621.89
2018-01-10T16:33:20.999Z,100613.00
2018-01-10T16:35:49.360Z,100612.67
2018-01-10T16:38:17.756Z,100610.27
2018-01-10T16:40:46.165Z,100605.44
2018-01-10T16:43:14.524Z,100609.61
2018-01-10T16:45:42.913Z,100612.63
2018-01-10T16:48:11.292Z,100611.20
2018-01-10T16:50:39.647Z,100610.92
2018-01-10T16:53:08.023Z,100604.09
2018-01-10T16:55:36.408Z,100608.37
2018-01-10T16:58:04.834Z,100599.73
2018-01-10T17:00:33.592Z,100593.23
2018-01-10T17:03:01.949Z,100599.83
2018-01-10T17:05:30.303Z,100607.91
2018-01-10T17:07:58.775Z,100596.87
2018-01-10T17:10:27.215Z,100601.80
2018-01-10T17:12:55.562Z,100602.00
2018-01-10T17:15:24.031Z,100607.77
2018-01-10T17:17:52.380Z,100603.72
2018-01-10T17:20:21.168Z,100613.55
2018-01-10T17:22:49.924Z,100605.87
2018-01-10T17:25:18.287Z,100601.23
2018-01-10T17:27:46.701Z,100600.20
2018-01-10T17:30:15.140Z,100592.34
2018-01-10T17:32:43.528Z,100602.17
2018-01-10T17:35:11.905Z,100604.12
2018-01-10T17:37:40.285Z,100615.83
2018-01-10T17:40:08.648Z,100616.86
2018-01-10T17:42:37.005Z,100620.95
2018-01-10T17:45:05.387Z,100620.34
2018-01-10T17:47:33.757Z,100622.47
2018-01-10T17:50:02.535Z,100632.17
2018-01-10T17:52:31.377Z,100626.81
2018-01-10T17:54:59.738Z,100633.84
2018-01-10T17:57:28.170Z,100634.50
2018-01-10T17:59:56.503Z,100633.50
2018-01-10T18:02:24.871Z,100639.18
2018-01-10T18:04:53.244Z,100636.32
2018-01-10T18:07:21.639Z,100640.44
2018-01-10T18:09:50.011Z,100642.41
2018-01-10T18:12:18.521Z,100650.69
2018-01-10T18:14:47.098Z,100650.56
2018-01-10T18:17:15.462Z,100649.45
2018-01-10T18:19:43.822Z,100642.32
2018-01-10T18:22:12.223Z,100646.81
2018-01-10T18:24:40.584Z,100639.67
2018-01-10T18:27:08.953Z,100631.02
2018-01-10T18:29:37.360Z,100632.56
2018-01-10T18:32:05.756Z,100633.99
2018-01-10T18:34:34.100Z,100629.82
2018-01-10T18:37:02.557Z,100629.87
2018-01-10T18:39:31.336Z,100634.67
2018-01-10T18:42:00.185Z,100627.79
2018-01-10T18:44:28.554Z,100634.17
2018-01-10T18:46:56.912Z,100638.31
2018-01-10T18:49:25.268Z,100643.00
2018-01-10T18:51:54.952Z,100646.11
2018-01-10T18:54:23.299Z,100648.39
2018-01-10T18:56:51.724Z,100644.63
2018-01-10T18:59:20.551Z,100646.94
2018-01-10T19:01:48.927Z,100650.95
2018-01-10T19:04:17.377Z,100644.91
2018-01-10T19:06:46.223Z,100649.52
2018-01-10T19:09:14.698Z,100655.91
2018-01-10T19:11:43.144Z,100652.61
2018-01-10T19:14:11.568Z,100662.13
2018-01-10T19:16:39.973Z,100660.01
2018-01-10T19:19:08.321Z,100662.05
2018-01-10T19:21:36.817Z,100656.58
2018-01-10T19:24:05.185Z,100659.73
2018-01-10T19:26:33.613Z,100661.02
2018-01-10T19:29:02.371Z,100660.25
2018-01-10T19:31:31.407Z,100664.53
2018-01-10T19:34:00.002Z,100665.95
2018-01-10T19:36:28.394Z,100665.05
2018-01-10T19:38:56.851Z,100671.48
2018-01-10T19:41:25.216Z,100670.69
2018-01-10T19:43:53.964Z,100671.15
2018-01-10T19:46:22.440Z,100679.47
2018-01-10T19:48:51.008Z,100676.65
2018-01-10T19:51:19.370Z,100667.77
2018-01-10T19:53:47.730Z,100673.34
2018-01-10T19:56:16.107Z,100678.30
2018-01-10T19:58:44.903Z,100681.70
2018-01-10T20:01:13.313Z,100682.88
2018-01-10T20:03:41.712Z,100689.23
2018-01-10T20:06:10.069Z,100686.10
2018-01-10T20:08:38.457Z,100687.95
2018-01-10T20:11:06.848Z,100686.29
2018-01-10T20:13:35.207Z,100690.48
2018-01-10T20:16:03.701Z,100686.89
2018-01-10T20:18:32.193Z,100681.53
2018-01-10T20:21:00.623Z,100683.68
2018-01-10T20:23:29.037Z,100682.54
2018-01-10T20:25:57.431Z,100683.73
2018-01-10T20:28:25.792Z,100681.65
2018-01-10T20:30:54.174Z,100683.33
2018-01-10T20:33:22.521Z,100677.16
2018-01-10T20:35:50.904Z,100682.13
2018-01-10T20:38:19.259Z,100686.20
2018-01-10T20:40:48.003Z,100689.77
2018-01-10T20:43:16.395Z,100692.81
2018-01-10T20:45:44.756Z,100697.33
2018-01-10T20:48:13.244Z,100694.47
2018-01-10T20:50:41.646Z,100695.58
2018-01-10T20:53:10.415Z,100691.64
2018-01-10T20:55:38.884Z,100693.27
2018-01-10T20:58:07.228Z,100693.44
2018-01-10T21:00:35.605Z,100693.73
2018-01-10T21:03:04.026Z,100688.28
2018-01-10T21:05:32.474Z,100689.67
2018-01-10T21:08:00.848Z,100688.24
2018-01-10T21:10:29.210Z,100688.13
2018-01-10T21:12:57.980Z,100692.84
2018-01-10T21:15:26.735Z,100688.89
2018-01-10T21:17:55.124Z,100688.12
2018-01-10T21:20:23.495Z,100682.32
2018-01-10T21:22:51.880Z,100688.86
2018-01-10T21:25:20.350Z,100691.30
2018-01-10T21:27:48.711Z,100690.28
2018-01-10T21:30:17.059Z,100692.95
2018-01-10T21:32:45.866Z,100692.57
2018-01-10T21:35:14.869Z,100688.84
2018-01-10T21:37:43.264Z,100692.29
2018-01-10T21:40:11.608Z,100690.98
2018-01-10T21:42:39.970Z,100691.20
2018-01-10T21:45:08.927Z,100695.47
2018-01-10T21:47:37.287Z,100694.89
2018-01-10T21:50:05.774Z,100695.01
2018-01-10T21:52:34.156Z,100696.05
2018-01-10T21:55:02.520Z,100696.11
2018-01-10T21:57:30.891Z,100700.12
2018-01-10T21:59:59.246Z,100702.73
2018-01-10T22:02:28.066Z,100703.49
2018-01-10T22:04:56.384Z,100700.19
2018-01-10T22:07:24.770Z,100702.73
2018-01-10T22:09:53.290Z,100701.45
2018-01-10T22:12:22.265Z,100704.83
2018-01-10T22:14:50.634Z,100713.42
2018-01-10T22:17:19.480Z,100714.09
2018-01-10T22:19:47.836Z,100711.34
2018-01-10T22:22:16.225Z,100707.73
2018-01-10T22:24:44.619Z,100704.56
2018-01-10T22:27:13.013Z,100703.42
2018-01-10T22:29:41.446Z,100704.16
2018-01-10T22:32:09.796Z,100702.07
2018-01-10T22:34:38.559Z,100700.92
2018-01-10T22:37:06.921Z,100697.28
2018-01-10T22:39:35.296Z,100695.78
2018-01-10T22:42:03.654Z,100703.80
2018-01-10T22:44:32.018Z,100704.06
2018-01-10T22:47:00.396Z,100709.06
2018-01-10T22:49:28.756Z,100708.19
2018-01-10T22:51:58.068Z,100707.48
2018-01-10T22:54:26.429Z,100705.59
2018-01-10T22:56:55.216Z,100700.98
2018-01-10T22:59:24.296Z,100702.02
2018-01-10T23:01:52.654Z,100707.17
2018-01-10T23:04:21.067Z,100704.98
2018-01-10T23:06:50.047Z,100708.05
2018-01-10T23:09:18.422Z,100706.39
2018-01-10T23:11:46.782Z,100708.91
2018-01-10T23:14:15.155Z,100703.70
2018-01-10T23:16:43.534Z,100703.89
2018-01-10T23:19:11.919Z,100698.99
2018-01-10T23:21:40.295Z,100703.67
2018-01-10T23:24:08.663Z,100706.52
2018-01-10T23:26:37.164Z,100701.25
2018-01-10T23:29:05.877Z,100697.16
2018-01-10T23:31:34.340Z,100695.53
2018-01-10T23:34:02.715Z,100696.06
2018-01-10T23:36:31.085Z,100702.17
2018-01-10T23:38:59.533Z,100693.58
2018-01-10T23:41:27.899Z,100694.38
2018-01-10T23:43:56.251Z,100699.55
2018-01-10T23:46:24.632Z,100701.54
2018-01-10T23:48:53.389Z,100700.25
2018-01-10T23:51:21.871Z,100704.48
2018-01-10T23:53:50.249Z,100700.86
2018-01-10T23:56:18.603Z,100697.75
2018-01-10T23:58:46.991Z,100697.98
